sensor_id;sensor_type;location;lat;lon;timestamp;P1;durP1;ratioP1;P2;durP2;ratioP2
24381;SDS011;12502;50.678;7.172;2022-09-09T00:05:12;1.83;;;0.98;;
24381;SDS011;12502;50.678;7.172;2022-09-09T00:10:22;3.15;;;1.17;;
24381;SDS011;12502;50.678;7.172;2022-09-09T00:15:35;4.82;;;1.48;;
24381;SDS011;12502;50.678;7.172;2022-09-09T00:31:39;8.18;;;1.45;;
24381;SDS011;12502;50.678;7.172;2022-09-09T00:36:33;3.83;;;1.50;;
24381;SDS011;12502;50.678;7.172;2022-09-09T00:52:45;6.13;;;1.38;;
24381;SDS011;12502;50.678;7.172;2022-09-09T00:57:51;4.50;;;1.40;;
24381;SDS011;12502;50.678;7.172;2022-09-09T01:08:05;4.18;;;1.60;;
24381;SDS011;12502;50.678;7.172;2022-09-09T01:13:32;6.10;;;1.58;;
24381;SDS011;12502;50.678;7.172;2022-09-09T01:18:40;4.10;;;1.35;;
24381;SDS011;12502;50.678;7.172;2022-09-09T01:29:33;4.50;;;1.40;;
24381;SDS011;12502;50.678;7.172;2022-09-09T01:34:36;3.30;;;1.55;;
24381;SDS011;12502;50.678;7.172;2022-09-09T01:39:41;2.90;;;1.25;;
24381;SDS011;12502;50.678;7.172;2022-09-09T01:44:46;4.82;;;1.65;;
24381;SDS011;12502;50.678;7.172;2022-09-09T01:49:48;3.15;;;1.33;;
24381;SDS011;12502;50.678;7.172;2022-09-09T01:54:50;3.95;;;1.30;;
24381;SDS011;12502;50.678;7.172;2022-09-09T02:05:23;3.53;;;1.27;;
24381;SDS011;12502;50.678;7.172;2022-09-09T02:10:46;5.30;;;1.23;;
24381;SDS011;12502;50.678;7.172;2022-09-09T02:16:07;5.13;;;1.50;;
24381;SDS011;12502;50.678;7.172;2022-09-09T02:21:12;4.03;;;1.20;;
24381;SDS011;12502;50.678;7.172;2022-09-09T02:26:16;5.15;;;1.25;;
24381;SDS011;12502;50.678;7.172;2022-09-09T02:31:23;5.22;;;1.40;;
24381;SDS011;12502;50.678;7.172;2022-09-09T02:36:28;5.60;;;1.38;;
24381;SDS011;12502;50.678;7.172;2022-09-09T02:41:34;2.85;;;1.30;;
24381;SDS011;12502;50.678;7.172;2022-09-09T02:46:53;3.33;;;1.02;;
24381;SDS011;12502;50.678;7.172;2022-09-09T02:52:13;3.45;;;1.20;;
24381;SDS011;12502;50.678;7.172;2022-09-09T02:57:28;5.18;;;1.40;;
24381;SDS011;12502;50.678;7.172;2022-09-09T03:02:32;4.90;;;1.40;;
24381;SDS011;12502;50.678;7.172;2022-09-09T03:07:34;5.40;;;1.48;;
24381;SDS011;12502;50.678;7.172;2022-09-09T03:12:36;4.07;;;1.27;;
24381;SDS011;12502;50.678;7.172;2022-09-09T03:17:37;3.35;;;1.50;;
24381;SDS011;12502;50.678;7.172;2022-09-09T03:22:40;6.00;;;1.40;;
24381;SDS011;12502;50.678;7.172;2022-09-09T03:27:42;4.28;;;1.33;;
24381;SDS011;12502;50.678;7.172;2022-09-09T03:32:43;4.25;;;1.05;;
24381;SDS011;12502;50.678;7.172;2022-09-09T03:37:49;4.93;;;1.58;;
24381;SDS011;12502;50.678;7.172;2022-09-09T03:42:50;4.55;;;1.60;;
24381;SDS011;12502;50.678;7.172;2022-09-09T03:47:52;6.90;;;1.50;;
24381;SDS011;12502;50.678;7.172;2022-09-09T03:52:55;5.80;;;1.70;;
24381;SDS011;12502;50.678;7.172;2022-09-09T03:57:56;6.97;;;1.60;;
24381;SDS011;12502;50.678;7.172;2022-09-09T04:02:58;5.40;;;1.30;;
24381;SDS011;12502;50.678;7.172;2022-09-09T04:08:00;5.95;;;1.58;;
24381;SDS011;12502;50.678;7.172;2022-09-09T04:13:02;4.78;;;1.70;;
24381;SDS011;12502;50.678;7.172;2022-09-09T04:18:05;6.57;;;1.90;;
24381;SDS011;12502;50.678;7.172;2022-09-09T04:23:07;4.50;;;1.50;;
24381;SDS011;12502;50.678;7.172;2022-09-09T04:28:09;5.18;;;1.60;;
24381;SDS011;12502;50.678;7.172;2022-09-09T04:33:11;8.73;;;1.60;;
24381;SDS011;12502;50.678;7.172;2022-09-09T04:38:14;5.32;;;1.85;;
24381;SDS011;12502;50.678;7.172;2022-09-09T04:43:16;2.63;;;1.33;;
24381;SDS011;12502;50.678;7.172;2022-09-09T04:48:19;7.63;;;1.55;;
24381;SDS011;12502;50.678;7.172;2022-09-09T04:53:21;6.82;;;1.60;;
24381;SDS011;12502;50.678;7.172;2022-09-09T04:58:23;5.65;;;1.58;;
24381;SDS011;12502;50.678;7.172;2022-09-09T05:03:25;4.43;;;1.48;;
24381;SDS011;12502;50.678;7.172;2022-09-09T05:08:27;5.13;;;2.13;;
24381;SDS011;12502;50.678;7.172;2022-09-09T05:13:29;4.63;;;1.50;;
24381;SDS011;12502;50.678;7.172;2022-09-09T05:18:33;3.73;;;1.33;;
24381;SDS011;12502;50.678;7.172;2022-09-09T05:23:34;8.30;;;1.95;;
24381;SDS011;12502;50.678;7.172;2022-09-09T05:28:36;6.57;;;1.73;;
24381;SDS011;12502;50.678;7.172;2022-09-09T05:33:39;6.97;;;1.63;;
24381;SDS011;12502;50.678;7.172;2022-09-09T05:38:42;5.55;;;1.50;;
24381;SDS011;12502;50.678;7.172;2022-09-09T05:43:45;8.07;;;1.77;;
24381;SDS011;12502;50.678;7.172;2022-09-09T05:48:48;10.85;;;2.47;;
24381;SDS011;12502;50.678;7.172;2022-09-09T05:53:52;6.70;;;1.77;;
24381;SDS011;12502;50.678;7.172;2022-09-09T05:58:56;4.77;;;2.03;;
24381;SDS011;12502;50.678;7.172;2022-09-09T06:03:58;8.68;;;2.03;;
24381;SDS011;12502;50.678;7.172;2022-09-09T06:08:59;5.60;;;2.03;;
24381;SDS011;12502;50.678;7.172;2022-09-09T06:14:02;4.28;;;2.10;;
24381;SDS011;12502;50.678;7.172;2022-09-09T06:19:04;4.82;;;1.60;;
24381;SDS011;12502;50.678;7.172;2022-09-09T06:24:06;9.00;;;1.98;;
24381;SDS011;12502;50.678;7.172;2022-09-09T06:29:09;9.45;;;2.08;;
24381;SDS011;12502;50.678;7.172;2022-09-09T06:34:10;6.38;;;1.95;;
24381;SDS011;12502;50.678;7.172;2022-09-09T06:39:12;5.03;;;1.63;;
24381;SDS011;12502;50.678;7.172;2022-09-09T06:44:16;4.68;;;1.40;;
24381;SDS011;12502;50.678;7.172;2022-09-09T06:49:18;8.18;;;1.90;;
24381;SDS011;12502;50.678;7.172;2022-09-09T06:54:19;4.53;;;1.73;;
24381;SDS011;12502;50.678;7.172;2022-09-09T06:59:23;7.47;;;1.55;;
24381;SDS011;12502;50.678;7.172;2022-09-09T07:04:24;5.93;;;1.50;;
24381;SDS011;12502;50.678;7.172;2022-09-09T07:09:26;5.75;;;1.75;;
24381;SDS011;12502;50.678;7.172;2022-09-09T07:14:28;4.82;;;1.30;;
24381;SDS011;12502;50.678;7.172;2022-09-09T07:19:30;9.55;;;1.50;;
24381;SDS011;12502;50.678;7.172;2022-09-09T07:24:31;6.03;;;1.33;;
24381;SDS011;12502;50.678;7.172;2022-09-09T07:29:33;5.65;;;1.20;;
24381;SDS011;12502;50.678;7.172;2022-09-09T07:34:35;5.47;;;1.58;;
24381;SDS011;12502;50.678;7.172;2022-09-09T07:39:37;7.38;;;1.27;;
24381;SDS011;12502;50.678;7.172;2022-09-09T07:44:39;7.95;;;1.95;;
24381;SDS011;12502;50.678;7.172;2022-09-09T07:49:41;6.80;;;1.48;;
24381;SDS011;12502;50.678;7.172;2022-09-09T07:54:43;4.20;;;1.35;;
24381;SDS011;12502;50.678;7.172;2022-09-09T07:59:49;4.20;;;1.20;;
24381;SDS011;12502;50.678;7.172;2022-09-09T08:04:51;7.43;;;1.98;;
24381;SDS011;12502;50.678;7.172;2022-09-09T08:09:53;6.38;;;1.42;;
24381;SDS011;12502;50.678;7.172;2022-09-09T08:14:56;6.40;;;1.83;;
24381;SDS011;12502;50.678;7.172;2022-09-09T08:19:58;5.25;;;1.60;;
24381;SDS011;12502;50.678;7.172;2022-09-09T08:25:04;9.98;;;1.67;;
24381;SDS011;12502;50.678;7.172;2022-09-09T08:30:07;4.80;;;1.33;;
24381;SDS011;12502;50.678;7.172;2022-09-09T08:35:10;6.18;;;1.15;;
24381;SDS011;12502;50.678;7.172;2022-09-09T08:40:16;5.38;;;1.38;;
24381;SDS011;12502;50.678;7.172;2022-09-09T08:50:32;3.60;;;1.15;;
24381;SDS011;12502;50.678;7.172;2022-09-09T09:06:19;6.30;;;1.20;;
24381;SDS011;12502;50.678;7.172;2022-09-09T09:11:23;3.45;;;0.90;;
24381;SDS011;12502;50.678;7.172;2022-09-09T09:16:53;6.18;;;2.92;;
24381;SDS011;12502;50.678;7.172;2022-09-09T09:27:31;3.42;;;0.95;;
24381;SDS011;12502;50.678;7.172;2022-09-09T09:32:35;3.10;;;1.02;;
24381;SDS011;12502;50.678;7.172;2022-09-09T09:37:40;6.47;;;1.20;;
24381;SDS011;12502;50.678;7.172;2022-09-09T09:48:10;3.67;;;1.20;;
24381;SDS011;12502;50.678;7.172;2022-09-09T09:58:21;4.45;;;1.20;;
24381;SDS011;12502;50.678;7.172;2022-09-09T10:03:25;4.03;;;1.23;;
24381;SDS011;12502;50.678;7.172;2022-09-09T10:08:29;4.28;;;1.13;;
24381;SDS011;12502;50.678;7.172;2022-09-09T10:13:44;4.10;;;1.20;;
24381;SDS011;12502;50.678;7.172;2022-09-09T10:24:09;9.18;;;1.60;;
24381;SDS011;12502;50.678;7.172;2022-09-09T10:29:31;3.42;;;1.20;;
24381;SDS011;12502;50.678;7.172;2022-09-09T10:35:01;6.15;;;1.55;;
24381;SDS011;12502;50.678;7.172;2022-09-09T10:50:51;5.20;;;1.20;;
24381;SDS011;12502;50.678;7.172;2022-09-09T10:56:21;4.18;;;1.08;;
24381;SDS011;12502;50.678;7.172;2022-09-09T11:01:29;3.72;;;1.00;;
24381;SDS011;12502;50.678;7.172;2022-09-09T11:06:39;4.57;;;1.10;;
24381;SDS011;12502;50.678;7.172;2022-09-09T11:11:52;7.07;;;1.40;;
24381;SDS011;12502;50.678;7.172;2022-09-09T11:17:06;3.22;;;1.10;;
24381;SDS011;12502;50.678;7.172;2022-09-09T11:22:34;2.50;;;0.85;;
24381;SDS011;12502;50.678;7.172;2022-09-09T11:44:32;1.58;;;0.70;;
24381;SDS011;12502;50.678;7.172;2022-09-09T11:49:40;2.42;;;1.00;;
24381;SDS011;12502;50.678;7.172;2022-09-09T11:54:47;4.53;;;1.05;;
24381;SDS011;12502;50.678;7.172;2022-09-09T11:59:50;3.10;;;1.10;;
24381;SDS011;12502;50.678;7.172;2022-09-09T12:05:04;3.38;;;1.00;;
24381;SDS011;12502;50.678;7.172;2022-09-09T12:10:20;3.90;;;0.97;;
24381;SDS011;12502;50.678;7.172;2022-09-09T12:15:46;2.38;;;0.98;;
24381;SDS011;12502;50.678;7.172;2022-09-09T12:36:19;1.52;;;0.65;;
24381;SDS011;12502;50.678;7.172;2022-09-09T12:41:26;3.17;;;0.90;;
24381;SDS011;12502;50.678;7.172;2022-09-09T12:46:32;2.43;;;0.90;;
24381;SDS011;12502;50.678;7.172;2022-09-09T12:51:37;3.35;;;1.05;;
24381;SDS011;12502;50.678;7.172;2022-09-09T12:56:39;4.32;;;1.15;;
24381;SDS011;12502;50.678;7.172;2022-09-09T13:01:41;7.10;;;1.10;;
24381;SDS011;12502;50.678;7.172;2022-09-09T13:06:43;3.05;;;0.80;;
24381;SDS011;12502;50.678;7.172;2022-09-09T13:11:52;3.38;;;0.82;;
24381;SDS011;12502;50.678;7.172;2022-09-09T13:17:01;1.70;;;0.77;;
24381;SDS011;12502;50.678;7.172;2022-09-09T13:22:14;2.63;;;1.00;;
24381;SDS011;12502;50.678;7.172;2022-09-09T13:32:32;3.20;;;1.08;;
24381;SDS011;12502;50.678;7.172;2022-09-09T13:37:35;2.17;;;0.88;;
24381;SDS011;12502;50.678;7.172;2022-09-09T13:42:39;2.33;;;0.80;;
24381;SDS011;12502;50.678;7.172;2022-09-09T13:47:43;1.95;;;0.73;;
24381;SDS011;12502;50.678;7.172;2022-09-09T13:52:46;2.83;;;0.80;;
24381;SDS011;12502;50.678;7.172;2022-09-09T13:57:55;3.50;;;0.77;;
24381;SDS011;12502;50.678;7.172;2022-09-09T14:03:01;3.05;;;0.80;;
24381;SDS011;12502;50.678;7.172;2022-09-09T14:08:04;2.08;;;1.02;;
24381;SDS011;12502;50.678;7.172;2022-09-09T14:13:07;2.55;;;0.70;;
24381;SDS011;12502;50.678;7.172;2022-09-09T14:18:10;3.08;;;0.50;;
24381;SDS011;12502;50.678;7.172;2022-09-09T14:23:13;4.45;;;0.70;;
24381;SDS011;12502;50.678;7.172;2022-09-09T14:28:16;2.75;;;0.70;;
24381;SDS011;12502;50.678;7.172;2022-09-09T14:33:26;0.82;;;0.40;;
24381;SDS011;12502;50.678;7.172;2022-09-09T14:38:30;1.30;;;0.75;;
24381;SDS011;12502;50.678;7.172;2022-09-09T14:43:34;2.05;;;0.60;;
24381;SDS011;12502;50.678;7.172;2022-09-09T14:48:36;1.38;;;0.57;;
24381;SDS011;12502;50.678;7.172;2022-09-09T14:53:40;3.08;;;0.70;;
24381;SDS011;12502;50.678;7.172;2022-09-09T14:58:42;2.47;;;0.50;;
24381;SDS011;12502;50.678;7.172;2022-09-09T15:03:52;4.05;;;0.70;;
24381;SDS011;12502;50.678;7.172;2022-09-09T15:08:56;2.35;;;1.00;;
24381;SDS011;12502;50.678;7.172;2022-09-09T15:14:02;2.35;;;1.02;;
24381;SDS011;12502;50.678;7.172;2022-09-09T15:19:04;2.28;;;0.80;;
24381;SDS011;12502;50.678;7.172;2022-09-09T15:24:06;2.30;;;0.90;;
24381;SDS011;12502;50.678;7.172;2022-09-09T15:29:09;1.30;;;0.60;;
24381;SDS011;12502;50.678;7.172;2022-09-09T15:34:11;3.47;;;0.75;;
24381;SDS011;12502;50.678;7.172;2022-09-09T15:39:15;1.63;;;0.70;;
24381;SDS011;12502;50.678;7.172;2022-09-09T15:44:18;4.15;;;0.63;;
24381;SDS011;12502;50.678;7.172;2022-09-09T15:49:21;3.63;;;0.77;;
24381;SDS011;12502;50.678;7.172;2022-09-09T15:54:26;2.38;;;0.60;;
24381;SDS011;12502;50.678;7.172;2022-09-09T15:59:29;3.28;;;0.85;;
24381;SDS011;12502;50.678;7.172;2022-09-09T16:04:32;1.90;;;0.80;;
24381;SDS011;12502;50.678;7.172;2022-09-09T16:09:35;2.00;;;0.70;;
24381;SDS011;12502;50.678;7.172;2022-09-09T16:14:37;3.80;;;1.20;;
24381;SDS011;12502;50.678;7.172;2022-09-09T16:19:39;2.25;;;0.82;;
24381;SDS011;12502;50.678;7.172;2022-09-09T16:24:41;2.65;;;0.90;;
24381;SDS011;12502;50.678;7.172;2022-09-09T16:29:43;2.38;;;0.70;;
24381;SDS011;12502;50.678;7.172;2022-09-09T16:34:45;2.53;;;1.10;;
24381;SDS011;12502;50.678;7.172;2022-09-09T16:39:47;3.45;;;0.90;;
24381;SDS011;12502;50.678;7.172;2022-09-09T16:44:49;2.70;;;1.00;;
24381;SDS011;12502;50.678;7.172;2022-09-09T16:49:51;3.67;;;1.08;;
24381;SDS011;12502;50.678;7.172;2022-09-09T16:54:53;2.95;;;1.02;;
24381;SDS011;12502;50.678;7.172;2022-09-09T16:59:54;2.90;;;0.98;;
24381;SDS011;12502;50.678;7.172;2022-09-09T17:05:00;4.72;;;1.10;;
24381;SDS011;12502;50.678;7.172;2022-09-09T17:10:02;3.70;;;1.00;;
24381;SDS011;12502;50.678;7.172;2022-09-09T17:15:04;2.50;;;1.10;;
24381;SDS011;12502;50.678;7.172;2022-09-09T17:20:07;1.95;;;1.00;;
24381;SDS011;12502;50.678;7.172;2022-09-09T17:25:10;4.78;;;1.25;;
24381;SDS011;12502;50.678;7.172;2022-09-09T17:30:12;2.60;;;1.30;;
24381;SDS011;12502;50.678;7.172;2022-09-09T17:35:14;4.03;;;1.40;;
24381;SDS011;12502;50.678;7.172;2022-09-09T17:40:16;5.05;;;1.33;;
24381;SDS011;12502;50.678;7.172;2022-09-09T17:45:18;4.07;;;1.50;;
24381;SDS011;12502;50.678;7.172;2022-09-09T17:50:20;3.38;;;1.30;;
24381;SDS011;12502;50.678;7.172;2022-09-09T17:55:22;6.18;;;1.73;;
24381;SDS011;12502;50.678;7.172;2022-09-09T18:00:24;1.88;;;1.25;;
24381;SDS011;12502;50.678;7.172;2022-09-09T18:05:25;3.10;;;1.10;;
24381;SDS011;12502;50.678;7.172;2022-09-09T18:10:27;3.45;;;1.27;;
24381;SDS011;12502;50.678;7.172;2022-09-09T18:15:29;3.55;;;1.27;;
24381;SDS011;12502;50.678;7.172;2022-09-09T18:20:59;2.88;;;1.25;;
24381;SDS011;12502;50.678;7.172;2022-09-09T18:26:12;2.75;;;0.80;;
24381;SDS011;12502;50.678;7.172;2022-09-09T18:31:16;2.28;;;1.10;;
24381;SDS011;12502;50.678;7.172;2022-09-09T18:36:24;1.02;;;0.90;;
24381;SDS011;12502;50.678;7.172;2022-09-09T18:41:29;2.63;;;1.35;;
24381;SDS011;12502;50.678;7.172;2022-09-09T18:46:35;5.72;;;1.38;;
24381;SDS011;12502;50.678;7.172;2022-09-09T18:51:38;3.13;;;1.20;;
24381;SDS011;12502;50.678;7.172;2022-09-09T18:56:42;2.42;;;1.30;;
24381;SDS011;12502;50.678;7.172;2022-09-09T19:01:44;4.65;;;2.03;;
24381;SDS011;12502;50.678;7.172;2022-09-09T19:06:47;5.65;;;1.70;;
24381;SDS011;12502;50.678;7.172;2022-09-09T19:11:50;2.40;;;1.40;;
24381;SDS011;12502;50.678;7.172;2022-09-09T19:16:52;5.50;;;1.67;;
24381;SDS011;12502;50.678;7.172;2022-09-09T19:21:54;4.45;;;1.45;;
24381;SDS011;12502;50.678;7.172;2022-09-09T19:32:02;3.45;;;1.60;;
24381;SDS011;12502;50.678;7.172;2022-09-09T19:37:24;5.07;;;1.95;;
24381;SDS011;12502;50.678;7.172;2022-09-09T19:42:26;4.18;;;1.80;;
24381;SDS011;12502;50.678;7.172;2022-09-09T19:47:30;3.88;;;1.40;;
24381;SDS011;12502;50.678;7.172;2022-09-09T19:52:31;2.75;;;1.50;;
24381;SDS011;12502;50.678;7.172;2022-09-09T19:57:33;5.60;;;1.73;;
24381;SDS011;12502;50.678;7.172;2022-09-09T20:02:35;5.07;;;1.83;;
24381;SDS011;12502;50.678;7.172;2022-09-09T20:07:37;3.92;;;1.60;;
24381;SDS011;12502;50.678;7.172;2022-09-09T20:12:39;5.25;;;1.58;;
24381;SDS011;12502;50.678;7.172;2022-09-09T20:17:42;4.45;;;1.88;;
24381;SDS011;12502;50.678;7.172;2022-09-09T20:22:44;7.43;;;2.10;;
24381;SDS011;12502;50.678;7.172;2022-09-09T20:27:45;5.25;;;2.00;;
24381;SDS011;12502;50.678;7.172;2022-09-09T20:32:47;4.75;;;1.70;;
24381;SDS011;12502;50.678;7.172;2022-09-09T20:37:49;2.42;;;1.50;;
24381;SDS011;12502;50.678;7.172;2022-09-09T20:42:50;4.70;;;1.80;;
24381;SDS011;12502;50.678;7.172;2022-09-09T20:47:52;5.25;;;1.60;;
24381;SDS011;12502;50.678;7.172;2022-09-09T20:52:57;2.42;;;1.60;;
24381;SDS011;12502;50.678;7.172;2022-09-09T20:57:59;4.30;;;1.50;;
24381;SDS011;12502;50.678;7.172;2022-09-09T21:03:01;4.47;;;1.65;;
24381;SDS011;12502;50.678;7.172;2022-09-09T21:08:03;3.78;;;1.48;;
24381;SDS011;12502;50.678;7.172;2022-09-09T21:13:04;3.88;;;1.60;;
24381;SDS011;12502;50.678;7.172;2022-09-09T21:18:06;4.53;;;1.90;;
24381;SDS011;12502;50.678;7.172;2022-09-09T21:23:08;2.85;;;1.70;;
24381;SDS011;12502;50.678;7.172;2022-09-09T21:28:14;5.32;;;1.70;;
24381;SDS011;12502;50.678;7.172;2022-09-09T21:33:17;3.47;;;1.70;;
24381;SDS011;12502;50.678;7.172;2022-09-09T21:38:21;5.07;;;1.50;;
24381;SDS011;12502;50.678;7.172;2022-09-09T21:43:24;5.87;;;1.80;;
24381;SDS011;12502;50.678;7.172;2022-09-09T21:48:26;4.20;;;1.33;;
24381;SDS011;12502;50.678;7.172;2022-09-09T21:53:28;4.07;;;1.75;;
24381;SDS011;12502;50.678;7.172;2022-09-09T21:58:30;3.03;;;1.60;;
24381;SDS011;12502;50.678;7.172;2022-09-09T22:03:31;6.60;;;1.75;;
24381;SDS011;12502;50.678;7.172;2022-09-09T22:08:38;4.68;;;1.83;;
24381;SDS011;12502;50.678;7.172;2022-09-09T22:13:40;7.15;;;1.88;;
24381;SDS011;12502;50.678;7.172;2022-09-09T22:18:43;5.25;;;1.80;;
24381;SDS011;12502;50.678;7.172;2022-09-09T22:24:19;4.68;;;1.77;;
24381;SDS011;12502;50.678;7.172;2022-09-09T22:29:13;3.72;;;1.90;;
24381;SDS011;12502;50.678;7.172;2022-09-09T22:34:15;2.50;;;1.80;;
24381;SDS011;12502;50.678;7.172;2022-09-09T22:39:17;5.15;;;1.90;;
24381;SDS011;12502;50.678;7.172;2022-09-09T22:44:19;3.45;;;2.10;;
24381;SDS011;12502;50.678;7.172;2022-09-09T22:49:21;4.60;;;1.70;;
24381;SDS011;12502;50.678;7.172;2022-09-09T22:54:23;3.03;;;1.98;;
24381;SDS011;12502;50.678;7.172;2022-09-09T22:59:25;3.92;;;1.60;;
24381;SDS011;12502;50.678;7.172;2022-09-09T23:04:28;4.10;;;1.80;;
24381;SDS011;12502;50.678;7.172;2022-09-09T23:09:30;3.65;;;1.65;;
24381;SDS011;12502;50.678;7.172;2022-09-09T23:14:32;5.55;;;2.08;;
24381;SDS011;12502;50.678;7.172;2022-09-09T23:19:34;3.05;;;1.42;;
24381;SDS011;12502;50.678;7.172;2022-09-09T23:24:37;5.28;;;1.67;;
24381;SDS011;12502;50.678;7.172;2022-09-09T23:29:39;3.38;;;1.80;;
24381;SDS011;12502;50.678;7.172;2022-09-09T23:34:40;6.15;;;2.05;;
24381;SDS011;12502;50.678;7.172;2022-09-09T23:39:42;5.32;;;2.03;;
24381;SDS011;12502;50.678;7.172;2022-09-09T23:44:44;4.38;;;2.40;;
24381;SDS011;12502;50.678;7.172;2022-09-09T23:49:47;4.90;;;2.20;;
24381;SDS011;12502;50.678;7.172;2022-09-09T23:54:50;4.30;;;1.95;;
24381;SDS011;12502;50.678;7.172;2022-09-09T23:59:52;11.48;;;2.15;;
